< < Back
Terminal Aerodrome Forecast


Current Version              Previous Versions:   1  2  3  4  5  6  7  8  9  

Terminal Aerodrome Forecast

937
FTUS42 KGSP 281617 AAA
TAFHKY
TAF AMD
KHKY 281617Z 2816/0112 05007KT P6SM BKN040
     FM282100 07004KT P6SM BKN020
     FM010500 05004KT P6SM BKN028
     FM010900 03003KT P6SM -FZRA OVC017=



Latest METAR

302
SAUS70 KWBC 011100 RRP
MTRHKY
METAR KHKY 011053Z AUTO 00000KT 7SM -FZRA BKN019 OVC055 M01/M05 A3056
RMK AO2 UPB12E35FZRAB35 SLP346 P0002 I1002 T10111050


USA.gov is the U.S. government's official web portal to all federal, state and local government web resources and services.